createdAt,value
2018-10-09T00:00:00.922Z,11.46
2018-10-09T00:02:29.479Z,11.38
2018-10-09T00:04:58.003Z,11.42
2018-10-09T00:07:26.575Z,11.48
2018-10-09T00:09:55.109Z,11.49
2018-10-09T00:12:23.707Z,11.53
2018-10-09T00:14:52.184Z,11.50
2018-10-09T00:17:21.357Z,11.28
2018-10-09T00:19:49.915Z,11.36
2018-10-09T00:22:18.428Z,11.30
2018-10-09T00:24:46.927Z,11.11
2018-10-09T00:27:15.459Z,11.29
2018-10-09T00:29:43.941Z,11.22
2018-10-09T00:32:12.388Z,11.06
2018-10-09T00:34:40.913Z,11.09
2018-10-09T00:37:09.340Z,11.21
2018-10-09T00:39:37.871Z,11.36
2018-10-09T00:42:06.311Z,11.14
2018-10-09T00:44:34.793Z,11.30
2018-10-09T00:47:03.279Z,11.18
2018-10-09T00:49:31.780Z,11.29
2018-10-09T00:52:00.258Z,11.21
2018-10-09T00:54:28.776Z,10.80
2018-10-09T00:56:57.281Z,11.02
2018-10-09T00:59:25.930Z,10.91
2018-10-09T01:01:54.464Z,11.02
2018-10-09T01:04:22.944Z,11.05
2018-10-09T01:06:51.572Z,11.16
2018-10-09T01:09:20.166Z,11.10
2018-10-09T01:11:48.630Z,11.17
2018-10-09T01:14:17.207Z,11.24
2018-10-09T01:16:45.771Z,11.29
2018-10-09T01:19:14.441Z,11.29
2018-10-09T01:21:43.049Z,11.17
2018-10-09T01:24:11.592Z,10.96
2018-10-09T01:26:40.179Z,11.28
2018-10-09T01:29:08.674Z,11.34
2018-10-09T01:31:37.206Z,11.33
2018-10-09T01:34:05.734Z,11.16
2018-10-09T01:36:34.307Z,11.18
2018-10-09T01:39:02.797Z,11.05
2018-10-09T01:41:31.315Z,11.11
2018-10-09T01:43:59.892Z,11.12
2018-10-09T01:46:28.428Z,11.17
2018-10-09T01:48:56.984Z,11.05
2018-10-09T01:51:25.563Z,11.14
2018-10-09T01:53:54.060Z,11.05
2018-10-09T01:56:22.547Z,10.97
2018-10-09T01:58:50.998Z,11.16
2018-10-09T02:01:19.453Z,10.90
2018-10-09T02:03:47.962Z,11.12
2018-10-09T02:06:16.437Z,10.90
2018-10-09T02:08:44.955Z,11.09
2018-10-09T02:11:13.572Z,11.08
2018-10-09T02:13:42.124Z,10.97
2018-10-09T02:16:10.704Z,10.99
2018-10-09T02:18:39.265Z,11.18
2018-10-09T02:21:07.865Z,11.12
2018-10-09T02:23:36.417Z,11.11
2018-10-09T02:26:04.940Z,10.94
2018-10-09T02:28:33.458Z,11.04
2018-10-09T02:31:02.079Z,10.80
2018-10-09T02:33:30.687Z,11.20
2018-10-09T02:35:59.147Z,11.04
2018-10-09T02:38:27.639Z,11.05
2018-10-09T02:40:56.198Z,11.14
2018-10-09T02:43:24.719Z,10.93
2018-10-09T02:45:53.255Z,11.03
2018-10-09T02:48:21.698Z,11.06
2018-10-09T02:50:50.504Z,11.05
2018-10-09T02:53:18.993Z,11.20
2018-10-09T02:55:47.555Z,11.14
2018-10-09T02:58:16.035Z,11.08
2018-10-09T03:00:44.644Z,11.11
2018-10-09T03:03:13.158Z,11.03
2018-10-09T03:05:41.969Z,10.94
2018-10-09T03:08:10.438Z,11.06
2018-10-09T03:10:39.065Z,11.05
2018-10-09T03:13:07.536Z,10.93
2018-10-09T03:15:35.993Z,11.06
2018-10-09T03:18:04.460Z,10.79
2018-10-09T03:20:33.127Z,11.23
2018-10-09T03:23:01.610Z,11.18
2018-10-09T03:25:30.177Z,11.22
2018-10-09T03:27:58.710Z,11.27
2018-10-09T03:30:27.180Z,11.33
2018-10-09T03:32:55.652Z,11.21
2018-10-09T03:35:24.081Z,11.38
2018-10-09T03:37:52.589Z,11.17
2018-10-09T03:40:21.035Z,11.20
2018-10-09T03:42:49.538Z,11.28
2018-10-09T03:45:18.005Z,11.26
2018-10-09T03:47:46.458Z,11.04
2018-10-09T03:50:14.961Z,11.26
2018-10-09T03:52:43.620Z,11.08
2018-10-09T03:55:12.109Z,10.88
2018-10-09T03:57:40.638Z,10.93
2018-10-09T04:00:09.331Z,11.06
2018-10-09T04:02:37.903Z,11.29
2018-10-09T04:05:06.412Z,11.21
2018-10-09T04:07:34.954Z,11.15
2018-10-09T04:10:03.328Z,11.19
2018-10-09T04:12:31.659Z,11.11
2018-10-09T04:14:59.947Z,11.38
2018-10-09T04:17:28.274Z,11.00
2018-10-09T04:19:56.565Z,11.25
2018-10-09T04:22:24.876Z,11.45
2018-10-09T04:24:53.193Z,11.41
2018-10-09T04:27:21.568Z,11.44
2018-10-09T04:29:49.952Z,11.62
2018-10-09T04:32:20.164Z,11.39
2018-10-09T04:34:49.706Z,11.55
2018-10-09T04:37:18.937Z,11.79
2018-10-09T04:39:48.496Z,11.76
2018-10-09T04:42:17.311Z,11.72
2018-10-09T04:44:46.423Z,11.78
2018-10-09T04:47:15.928Z,11.43
2018-10-09T04:49:45.082Z,11.67
2018-10-09T04:52:14.077Z,11.70
2018-10-09T04:54:43.439Z,11.71
2018-10-09T04:57:12.403Z,11.49
2018-10-09T04:59:41.750Z,11.75
2018-10-09T05:02:10.505Z,11.78
2018-10-09T05:04:38.843Z,11.73
2018-10-09T05:07:08.201Z,11.61
2018-10-09T05:09:36.537Z,11.84
2018-10-09T05:12:05.632Z,11.85
2018-10-09T05:14:34.807Z,11.88
2018-10-09T05:17:04.256Z,11.91
2018-10-09T05:19:33.524Z,12.06
2018-10-09T05:22:01.973Z,11.90
2018-10-09T05:24:31.345Z,11.72
2018-10-09T05:27:00.794Z,11.84
2018-10-09T05:29:29.163Z,11.93
2018-10-09T05:31:57.510Z,11.71
2018-10-09T05:34:26.075Z,11.58
2018-10-09T05:36:54.374Z,11.94
2018-10-09T05:39:22.663Z,12.05
2018-10-09T05:41:51.012Z,12.10
2018-10-09T05:44:19.380Z,12.00
2018-10-09T05:46:47.620Z,12.00
2018-10-09T05:49:15.919Z,11.90
2018-10-09T05:51:44.228Z,12.01
2018-10-09T05:54:12.536Z,12.12
2018-10-09T05:56:40.865Z,12.02
2018-10-09T05:59:09.181Z,12.12
2018-10-09T06:01:37.645Z,12.14
2018-10-09T06:04:06.020Z,11.95
2018-10-09T06:06:34.450Z,12.26
2018-10-09T06:09:02.863Z,12.31
2018-10-09T06:11:31.315Z,12.39
2018-10-09T06:13:59.752Z,12.36
2018-10-09T06:16:28.340Z,12.61
2018-10-09T06:18:56.788Z,12.66
2018-10-09T06:21:25.184Z,12.72
2018-10-09T06:23:53.599Z,12.67
2018-10-09T06:26:22.056Z,12.90
2018-10-09T06:28:50.517Z,13.15
2018-10-09T06:31:19.022Z,13.42
2018-10-09T06:33:47.605Z,13.29
2018-10-09T06:36:16.369Z,13.14
2018-10-09T06:38:44.880Z,13.56
2018-10-09T06:41:13.387Z,13.67
2018-10-09T06:43:41.960Z,13.86
2018-10-09T06:46:10.468Z,13.85
2018-10-09T06:48:38.992Z,13.93
2018-10-09T06:51:07.462Z,14.12
2018-10-09T06:53:35.821Z,14.19
2018-10-09T06:56:04.283Z,13.97
2018-10-09T06:58:32.624Z,14.41
2018-10-09T07:01:01.080Z,14.23
2018-10-09T07:03:29.417Z,14.40
2018-10-09T07:05:57.931Z,14.55
2018-10-09T07:08:26.412Z,14.83
2018-10-09T07:10:54.960Z,14.89
2018-10-09T07:13:23.392Z,15.22
2018-10-09T07:15:51.893Z,15.07
2018-10-09T07:18:20.275Z,15.07
2018-10-09T07:20:48.680Z,15.33
2018-10-09T07:23:17.212Z,15.65
2018-10-09T07:25:45.748Z,15.35
2018-10-09T07:28:14.245Z,15.51
2018-10-09T07:30:42.789Z,15.94
2018-10-09T07:33:11.260Z,15.88
2018-10-09T07:35:39.737Z,16.39
2018-10-09T07:38:08.285Z,15.65
2018-10-09T07:40:36.815Z,15.90
2018-10-09T07:43:05.296Z,16.34
2018-10-09T07:45:33.724Z,16.65
2018-10-09T07:48:02.271Z,16.99
2018-10-09T07:50:30.716Z,17.61
2018-10-09T07:52:59.282Z,17.62
2018-10-09T07:55:27.604Z,18.37
2018-10-09T07:57:56.123Z,18.60
2018-10-09T08:00:24.746Z,18.92
2018-10-09T08:02:53.249Z,18.80
2018-10-09T08:05:21.700Z,18.93
2018-10-09T08:07:50.211Z,19.06
2018-10-09T08:10:18.759Z,19.12
2018-10-09T08:12:47.160Z,19.70
2018-10-09T08:15:15.600Z,19.87
2018-10-09T08:17:44.032Z,19.68
2018-10-09T08:20:12.435Z,20.08
2018-10-09T08:22:40.897Z,20.21
2018-10-09T08:25:09.306Z,21.50
2018-10-09T08:27:37.805Z,23.20
2018-10-09T08:30:06.332Z,25.56
2018-10-09T08:32:34.784Z,26.28
2018-10-09T08:35:03.200Z,26.92
2018-10-09T08:37:31.601Z,27.02
2018-10-09T08:40:00.018Z,27.45
2018-10-09T08:42:28.521Z,26.27
2018-10-09T08:44:57.036Z,25.53
2018-10-09T08:47:25.468Z,26.02
2018-10-09T08:49:53.987Z,26.81
2018-10-09T08:52:22.539Z,26.80
2018-10-09T08:54:50.944Z,27.13
2018-10-09T08:57:19.471Z,26.74
2018-10-09T08:59:47.921Z,28.19
2018-10-09T09:02:16.367Z,28.65
2018-10-09T09:04:44.911Z,28.83
2018-10-09T09:07:13.306Z,27.75
2018-10-09T09:09:41.798Z,27.12
2018-10-09T09:12:10.136Z,25.55
2018-10-09T09:14:38.656Z,25.53
2018-10-09T09:17:07.064Z,24.80
2018-10-09T09:19:35.553Z,23.88
2018-10-09T09:22:04.007Z,23.24
2018-10-09T09:24:32.439Z,23.28
2018-10-09T09:27:01.123Z,24.55
2018-10-09T09:29:29.571Z,25.89
2018-10-09T09:31:58.120Z,26.58
2018-10-09T09:34:26.585Z,27.40
2018-10-09T09:36:55.080Z,27.27
2018-10-09T09:39:23.458Z,26.72
2018-10-09T09:41:51.908Z,25.58
2018-10-09T09:44:20.305Z,24.53
2018-10-09T09:46:48.756Z,24.08
2018-10-09T09:49:17.164Z,23.56
2018-10-09T09:51:45.642Z,23.66
2018-10-09T09:54:14.056Z,24.13
2018-10-09T09:56:42.460Z,24.89
2018-10-09T09:59:11.033Z,25.49
2018-10-09T10:01:43.387Z,24.80
2018-10-09T10:04:12.668Z,24.45
2018-10-09T10:06:41.300Z,25.38
2018-10-09T10:09:10.393Z,26.46
2018-10-09T10:11:39.083Z,26.05
2018-10-09T10:14:08.064Z,26.57
2018-10-09T10:16:36.539Z,26.91
2018-10-09T10:19:05.119Z,27.50
2018-10-09T10:21:33.683Z,27.94
2018-10-09T10:24:02.038Z,28.10
2018-10-09T10:26:30.497Z,27.99
2018-10-09T10:28:59.003Z,26.42
2018-10-09T10:31:27.450Z,26.28
2018-10-09T10:33:56.070Z,25.14
2018-10-09T10:36:24.584Z,25.00
2018-10-09T10:38:53.115Z,24.84
2018-10-09T10:41:21.712Z,25.49
2018-10-09T10:43:50.244Z,25.52
2018-10-09T10:46:18.868Z,24.92
2018-10-09T10:48:59.587Z,24.97
2018-10-09T10:51:27.963Z,24.91
2018-10-09T10:53:56.729Z,24.54
2018-10-09T10:56:25.106Z,24.62
2018-10-09T10:58:53.465Z,24.62
2018-10-09T11:01:21.861Z,24.25
2018-10-09T11:03:50.225Z,24.70
2018-10-09T11:06:18.662Z,24.18
2018-10-09T11:08:47.884Z,24.51
2018-10-09T11:11:16.629Z,24.96
2018-10-09T11:13:45.261Z,25.46
2018-10-09T11:16:13.753Z,24.67
2018-10-09T11:18:42.296Z,24.45
2018-10-09T11:21:10.744Z,24.43
2018-10-09T11:23:39.476Z,25.01
2018-10-09T11:26:08.104Z,25.35
2018-10-09T11:28:36.556Z,25.74
2018-10-09T11:31:05.000Z,27.19
2018-10-09T11:33:33.705Z,28.01
2018-10-09T11:36:02.140Z,28.83
2018-10-09T11:38:30.485Z,29.06
2018-10-09T11:40:58.909Z,29.71
2018-10-09T11:43:27.296Z,29.62
2018-10-09T11:45:55.685Z,28.13
2018-10-09T11:48:24.100Z,27.46
2018-10-09T11:50:52.489Z,27.92
2018-10-09T11:53:20.860Z,28.04
2018-10-09T11:55:49.251Z,28.66
2018-10-09T11:58:17.628Z,29.70
2018-10-09T12:00:47.372Z,29.81
2018-10-09T12:03:15.787Z,30.74
2018-10-09T12:05:44.222Z,31.22
2018-10-09T12:08:12.798Z,30.55
2018-10-09T12:10:41.207Z,31.24
2018-10-09T12:13:09.600Z,31.71
2018-10-09T12:15:38.155Z,32.21
2018-10-09T12:18:06.569Z,31.59
2018-10-09T12:20:35.008Z,31.69
2018-10-09T12:23:03.412Z,31.62
2018-10-09T12:25:31.846Z,30.88
2018-10-09T12:28:00.254Z,30.38
2018-10-09T12:30:28.649Z,29.88
2018-10-09T12:32:57.290Z,28.46
2018-10-09T12:35:25.657Z,28.76
2018-10-09T12:37:54.282Z,29.05
2018-10-09T12:40:22.744Z,28.33
2018-10-09T12:42:51.206Z,27.72
2018-10-09T12:45:19.900Z,26.93
2018-10-09T12:47:48.400Z,26.90
2018-10-09T12:50:17.028Z,26.13
2018-10-09T12:52:45.525Z,25.58
2018-10-09T12:55:14.070Z,25.37
2018-10-09T12:57:42.546Z,25.53
2018-10-09T13:00:11.151Z,26.03
2018-10-09T13:02:40.551Z,25.81
2018-10-09T13:05:09.012Z,25.51
2018-10-09T13:07:37.528Z,25.80
2018-10-09T13:10:06.000Z,26.31
2018-10-09T13:12:34.427Z,26.01
2018-10-09T13:15:02.888Z,26.16
2018-10-09T13:17:31.338Z,25.82
2018-10-09T13:19:59.765Z,25.50
2018-10-09T13:22:28.474Z,25.52
2018-10-09T13:24:56.645Z,25.13
2018-10-09T13:27:25.072Z,25.70
2018-10-09T13:29:53.495Z,25.64
2018-10-09T13:32:21.940Z,25.60
2018-10-09T13:34:50.405Z,25.76
2018-10-09T13:37:18.970Z,25.97
2018-10-09T13:39:47.496Z,25.48
2018-10-09T13:42:15.908Z,25.71
2018-10-09T13:44:44.378Z,25.69
2018-10-09T13:47:12.810Z,25.77
2018-10-09T13:49:41.247Z,25.60
2018-10-09T13:52:09.740Z,25.43
2018-10-09T13:54:38.229Z,25.21
2018-10-09T13:57:07.017Z,25.38
2018-10-09T13:59:35.494Z,25.15
2018-10-09T14:02:03.999Z,25.24
2018-10-09T14:04:32.569Z,24.81
2018-10-09T14:07:01.075Z,25.03
2018-10-09T14:09:29.546Z,24.74
2018-10-09T14:11:58.096Z,24.33
2018-10-09T14:14:26.842Z,24.54
2018-10-09T14:16:57.676Z,24.85
2018-10-09T14:19:26.089Z,25.08
2018-10-09T14:21:54.783Z,24.60
2018-10-09T14:24:23.200Z,24.51
2018-10-09T14:26:51.590Z,24.78
2018-10-09T14:29:20.007Z,24.76
2018-10-09T14:31:48.420Z,24.62
2018-10-09T14:34:16.751Z,25.06
2018-10-09T14:36:45.221Z,25.27
2018-10-09T14:39:13.623Z,24.73
2018-10-09T14:41:42.200Z,24.38
2018-10-09T14:44:10.871Z,24.59
2018-10-09T14:46:39.184Z,24.51
2018-10-09T14:49:07.625Z,24.39
2018-10-09T14:51:36.154Z,24.92
2018-10-09T14:54:04.638Z,25.13
2018-10-09T14:56:33.104Z,24.80
2018-10-09T14:59:01.556Z,24.83
2018-10-09T15:01:30.069Z,25.26
2018-10-09T15:03:58.514Z,25.06
2018-10-09T15:06:26.919Z,25.30
2018-10-09T15:08:55.289Z,24.96
2018-10-09T15:11:23.700Z,24.88
2018-10-09T15:13:52.098Z,24.88
2018-10-09T15:16:20.504Z,24.44
2018-10-09T15:18:48.899Z,24.06
2018-10-09T15:21:17.301Z,24.43
2018-10-09T15:23:45.705Z,24.19
2018-10-09T15:26:14.104Z,23.89
2018-10-09T15:28:42.549Z,23.74
2018-10-09T15:31:10.992Z,23.63
2018-10-09T15:33:39.527Z,23.48
2018-10-09T15:36:08.001Z,24.02
2018-10-09T15:38:36.692Z,24.24
2018-10-09T15:41:05.183Z,23.89
2018-10-09T15:43:33.601Z,23.61
2018-10-09T15:46:02.038Z,23.27
2018-10-09T15:48:30.544Z,23.12
2018-10-09T15:50:59.008Z,23.23
2018-10-09T15:53:27.633Z,23.24
2018-10-09T15:55:56.192Z,23.23
2018-10-09T15:58:24.756Z,23.10
2018-10-09T16:00:53.252Z,23.24
2018-10-09T16:03:21.759Z,23.35
2018-10-09T16:05:50.348Z,23.25
2018-10-09T16:08:18.828Z,23.10
2018-10-09T16:10:47.317Z,23.08
2018-10-09T16:13:15.817Z,22.84
2018-10-09T16:15:44.328Z,22.64
2018-10-09T16:18:12.817Z,22.34
2018-10-09T16:20:41.394Z,22.08
2018-10-09T16:23:09.866Z,21.63
2018-10-09T16:25:38.404Z,21.40
2018-10-09T16:28:08.168Z,21.12
2018-10-09T16:30:36.664Z,21.14
2018-10-09T16:33:05.238Z,21.38
2018-10-09T16:35:33.734Z,21.20
2018-10-09T16:38:02.166Z,21.11
2018-10-09T16:40:30.665Z,20.98
2018-10-09T16:42:59.069Z,20.84
2018-10-09T16:45:27.547Z,20.86
2018-10-09T16:47:56.037Z,20.83
2018-10-09T16:50:24.479Z,20.35
2018-10-09T16:52:52.922Z,20.27
2018-10-09T16:55:21.459Z,20.25
2018-10-09T16:57:49.896Z,20.03
2018-10-09T17:00:18.500Z,20.32
2018-10-09T17:02:47.072Z,20.19
2018-10-09T17:05:15.679Z,20.00
2018-10-09T17:07:44.156Z,19.78
2018-10-09T17:10:12.628Z,19.99
2018-10-09T17:12:41.128Z,19.83
2018-10-09T17:15:09.624Z,19.37
2018-10-09T17:17:38.156Z,19.50
2018-10-09T17:20:06.664Z,19.52
2018-10-09T17:22:35.161Z,19.47
2018-10-09T17:25:03.616Z,19.48
2018-10-09T17:27:32.096Z,19.19
2018-10-09T17:30:00.593Z,19.17
2018-10-09T17:32:29.156Z,19.10
2018-10-09T17:34:57.735Z,18.71
2018-10-09T17:37:26.387Z,18.80
2018-10-09T17:39:54.796Z,18.53
2018-10-09T17:42:23.308Z,18.63
2018-10-09T17:44:51.805Z,18.86
2018-10-09T17:47:20.248Z,18.42
2018-10-09T17:49:48.672Z,18.50
2018-10-09T17:52:17.065Z,18.28
2018-10-09T17:54:45.683Z,18.40
2018-10-09T17:57:14.281Z,18.25
2018-10-09T17:59:42.856Z,18.30
2018-10-09T18:02:11.316Z,18.14
2018-10-09T18:04:39.753Z,18.08
2018-10-09T18:07:08.179Z,17.94
2018-10-09T18:09:36.652Z,17.75
2018-10-09T18:12:05.140Z,17.82
2018-10-09T18:14:33.479Z,17.70
2018-10-09T18:17:01.779Z,17.59
2018-10-09T18:19:30.152Z,17.58
2018-10-09T18:21:58.567Z,17.65
2018-10-09T18:24:26.964Z,17.65
2018-10-09T18:26:55.357Z,17.63
2018-10-09T18:29:23.738Z,17.49
2018-10-09T18:31:52.272Z,17.41
2018-10-09T18:34:20.756Z,17.09
2018-10-09T18:36:49.301Z,17.06
2018-10-09T18:39:17.856Z,17.08
2018-10-09T18:41:46.967Z,17.03
2018-10-09T18:44:15.732Z,17.01
2018-10-09T18:46:44.251Z,16.79
2018-10-09T18:49:12.830Z,16.63
2018-10-09T18:51:41.408Z,16.67
2018-10-09T18:54:09.837Z,16.72
2018-10-09T18:56:38.609Z,16.36
2018-10-09T18:59:07.152Z,16.48
2018-10-09T19:01:35.798Z,16.50
2018-10-09T19:04:04.336Z,16.49
2018-10-09T19:06:32.848Z,16.53
2018-10-09T19:09:01.261Z,16.16
2018-10-09T19:11:29.660Z,16.14
2018-10-09T19:13:58.181Z,15.95
2018-10-09T19:16:26.662Z,16.09
2018-10-09T19:18:55.127Z,15.83
2018-10-09T19:21:23.657Z,15.89
2018-10-09T19:23:52.210Z,16.16
2018-10-09T19:26:20.652Z,16.18
2018-10-09T19:28:49.072Z,16.16
2018-10-09T19:31:17.563Z,16.09
2018-10-09T19:33:46.394Z,16.04
2018-10-09T19:36:15.856Z,15.70
2018-10-09T19:38:44.341Z,15.69
2018-10-09T19:41:12.812Z,15.73
2018-10-09T19:43:41.236Z,15.65
2018-10-09T19:46:09.737Z,15.63
2018-10-09T19:48:38.161Z,15.62
2018-10-09T19:51:06.740Z,15.57
2018-10-09T19:53:35.212Z,15.48
2018-10-09T19:56:03.648Z,15.43
2018-10-09T19:58:32.104Z,15.26
2018-10-09T20:01:00.794Z,15.02
2018-10-09T20:03:29.248Z,14.98
2018-10-09T20:05:57.925Z,15.10
2018-10-09T20:08:26.465Z,15.12
2018-10-09T20:10:54.939Z,15.22
2018-10-09T20:13:23.458Z,15.04
2018-10-09T20:15:52.104Z,15.07
2018-10-09T20:18:20.585Z,15.02
2018-10-09T20:20:49.107Z,15.08
2018-10-09T20:23:17.531Z,15.10
2018-10-09T20:25:46.072Z,14.97
2018-10-09T20:28:14.690Z,15.01
2018-10-09T20:30:43.212Z,14.93
2018-10-09T20:33:11.806Z,14.91
2018-10-09T20:35:40.235Z,14.64
2018-10-09T20:38:08.657Z,14.88
2018-10-09T20:40:37.131Z,14.79
2018-10-09T20:43:05.669Z,14.88
2018-10-09T20:45:34.316Z,14.82
2018-10-09T20:48:02.832Z,14.65
2018-10-09T20:50:31.313Z,14.64
2018-10-09T20:52:59.850Z,14.59
2018-10-09T20:55:28.394Z,14.48
2018-10-09T20:57:57.404Z,14.36
2018-10-09T21:00:25.903Z,14.30
2018-10-09T21:02:54.384Z,14.43
2018-10-09T21:05:23.400Z,14.47
2018-10-09T21:07:52.736Z,14.54
2018-10-09T21:10:21.323Z,14.42
2018-10-09T21:12:49.760Z,14.44
2018-10-09T21:15:18.317Z,14.43
2018-10-09T21:17:46.963Z,14.41
2018-10-09T21:20:15.307Z,14.32
2018-10-09T21:22:43.729Z,14.09
2018-10-09T21:25:12.220Z,14.27
2018-10-09T21:27:40.684Z,13.92
2018-10-09T21:30:09.159Z,13.69
2018-10-09T21:32:37.808Z,13.79
2018-10-09T21:35:06.344Z,13.87
2018-10-09T21:37:34.769Z,14.09
2018-10-09T21:40:03.411Z,14.15
2018-10-09T21:42:31.909Z,14.19
2018-10-09T21:45:00.359Z,14.21
2018-10-09T21:47:28.831Z,14.04
2018-10-09T21:49:57.315Z,14.11
2018-10-09T21:52:25.915Z,13.83
2018-10-09T21:54:54.381Z,14.09
2018-10-09T21:57:23.894Z,14.09
2018-10-09T21:59:52.382Z,13.72
2018-10-09T22:02:20.837Z,14.03
2018-10-09T22:04:49.362Z,13.95
2018-10-09T22:07:18.673Z,13.96
2018-10-09T22:09:47.215Z,13.84
2018-10-09T22:12:15.620Z,13.89
2018-10-09T22:14:44.056Z,13.78
2018-10-09T22:17:12.484Z,13.68
2018-10-09T22:19:40.951Z,13.78
2018-10-09T22:22:09.359Z,13.76
2018-10-09T22:24:37.772Z,13.64
2018-10-09T22:27:06.289Z,13.54
2018-10-09T22:29:34.805Z,13.65
2018-10-09T22:32:03.392Z,13.34
2018-10-09T22:34:31.880Z,13.70
2018-10-09T22:37:00.344Z,13.71
2018-10-09T22:39:28.939Z,13.48
2018-10-09T22:41:57.452Z,13.64
2018-10-09T22:44:37.023Z,13.67
2018-10-09T22:47:05.432Z,13.59
2018-10-09T22:49:33.986Z,13.45
2018-10-09T22:52:02.387Z,13.55
2018-10-09T22:54:30.788Z,13.53
2018-10-09T22:56:59.208Z,13.33
2018-10-09T22:59:27.867Z,13.38
2018-10-09T23:01:56.430Z,13.48
2018-10-09T23:04:24.988Z,13.40
2018-10-09T23:06:53.489Z,13.36
2018-10-09T23:09:21.933Z,13.25
2018-10-09T23:11:50.294Z,13.15
2018-10-09T23:14:18.733Z,13.14
2018-10-09T23:16:47.158Z,13.23
2018-10-09T23:19:15.583Z,13.16
2018-10-09T23:21:44.102Z,13.09
2018-10-09T23:24:12.595Z,13.22
2018-10-09T23:26:40.964Z,13.20
2018-10-09T23:29:09.480Z,13.03
2018-10-09T23:31:38.056Z,13.05
2018-10-09T23:34:06.662Z,13.25
2018-10-09T23:36:35.127Z,13.17
2018-10-09T23:39:04.959Z,13.31
2018-10-09T23:41:33.347Z,13.35
2018-10-09T23:44:01.835Z,13.32
2018-10-09T23:46:30.321Z,13.32
2018-10-09T23:48:58.831Z,13.24
2018-10-09T23:51:27.269Z,13.25
2018-10-09T23:53:55.681Z,13.31
2018-10-09T23:56:24.072Z,13.17
2018-10-09T23:58:52.503Z,12.83
